sensor_id;sensor_type;location;lat;lon;timestamp;P1;durP1;ratioP1;P2;durP2;ratioP2
46084;SDS011;31823;47.032;8.310;2023-04-19T00:00:48;14.65;;;8.20;;
46084;SDS011;31823;47.032;8.310;2023-04-19T00:03:14;13.50;;;8.88;;
46084;SDS011;31823;47.032;8.310;2023-04-19T00:05:41;13.50;;;7.10;;
46084;SDS011;31823;47.032;8.310;2023-04-19T00:08:06;15.63;;;10.18;;
46084;SDS011;31823;47.032;8.310;2023-04-19T00:10:32;18.25;;;10.90;;
46084;SDS011;31823;47.032;8.310;2023-04-19T00:12:59;14.93;;;10.23;;
46084;SDS011;31823;47.032;8.310;2023-04-19T00:15:25;13.38;;;9.20;;
46084;SDS011;31823;47.032;8.310;2023-04-19T00:17:51;14.30;;;9.43;;
46084;SDS011;31823;47.032;8.310;2023-04-19T00:20:16;16.65;;;10.43;;
46084;SDS011;31823;47.032;8.310;2023-04-19T00:22:42;15.32;;;9.73;;
46084;SDS011;31823;47.032;8.310;2023-04-19T00:25:07;17.10;;;10.25;;
46084;SDS011;31823;47.032;8.310;2023-04-19T00:27:33;15.75;;;10.15;;
46084;SDS011;31823;47.032;8.310;2023-04-19T00:29:59;15.07;;;9.75;;
46084;SDS011;31823;47.032;8.310;2023-04-19T00:32:25;17.48;;;9.73;;
46084;SDS011;31823;47.032;8.310;2023-04-19T00:34:51;15.25;;;10.10;;
46084;SDS011;31823;47.032;8.310;2023-04-19T00:37:17;17.95;;;9.57;;
46084;SDS011;31823;47.032;8.310;2023-04-19T00:39:42;15.10;;;9.75;;
46084;SDS011;31823;47.032;8.310;2023-04-19T00:42:08;15.65;;;10.40;;
46084;SDS011;31823;47.032;8.310;2023-04-19T00:44:33;13.48;;;9.30;;
46084;SDS011;31823;47.032;8.310;2023-04-19T00:46:59;15.30;;;10.13;;
46084;SDS011;31823;47.032;8.310;2023-04-19T00:49:25;17.42;;;10.07;;
46084;SDS011;31823;47.032;8.310;2023-04-19T00:51:51;16.85;;;10.07;;
46084;SDS011;31823;47.032;8.310;2023-04-19T00:54:17;20.60;;;10.48;;
46084;SDS011;31823;47.032;8.310;2023-04-19T00:56:44;17.50;;;9.85;;
46084;SDS011;31823;47.032;8.310;2023-04-19T00:59:10;15.43;;;9.70;;
46084;SDS011;31823;47.032;8.310;2023-04-19T01:01:36;17.48;;;10.63;;
46084;SDS011;31823;47.032;8.310;2023-04-19T01:04:03;17.23;;;10.48;;
46084;SDS011;31823;47.032;8.310;2023-04-19T01:06:29;18.50;;;10.68;;
46084;SDS011;31823;47.032;8.310;2023-04-19T01:08:55;15.93;;;10.15;;
46084;SDS011;31823;47.032;8.310;2023-04-19T01:11:24;16.63;;;10.40;;
46084;SDS011;31823;47.032;8.310;2023-04-19T01:13:50;12.88;;;8.25;;
46084;SDS011;31823;47.032;8.310;2023-04-19T01:16:16;18.48;;;10.55;;
46084;SDS011;31823;47.032;8.310;2023-04-19T01:18:42;15.73;;;9.90;;
46084;SDS011;31823;47.032;8.310;2023-04-19T01:21:07;17.08;;;10.40;;
46084;SDS011;31823;47.032;8.310;2023-04-19T01:23:34;15.88;;;10.95;;
46084;SDS011;31823;47.032;8.310;2023-04-19T01:26:00;14.30;;;10.00;;
46084;SDS011;31823;47.032;8.310;2023-04-19T01:28:26;15.18;;;10.27;;
46084;SDS011;31823;47.032;8.310;2023-04-19T01:30:52;15.60;;;10.48;;
46084;SDS011;31823;47.032;8.310;2023-04-19T01:33:20;19.20;;;11.68;;
46084;SDS011;31823;47.032;8.310;2023-04-19T01:35:47;15.95;;;9.90;;
46084;SDS011;31823;47.032;8.310;2023-04-19T01:38:13;16.88;;;11.05;;
46084;SDS011;31823;47.032;8.310;2023-04-19T01:40:39;16.17;;;10.32;;
46084;SDS011;31823;47.032;8.310;2023-04-19T01:43:05;15.63;;;9.95;;
46084;SDS011;31823;47.032;8.310;2023-04-19T01:45:31;15.35;;;10.70;;
46084;SDS011;31823;47.032;8.310;2023-04-19T01:47:58;16.77;;;9.88;;
46084;SDS011;31823;47.032;8.310;2023-04-19T01:50:25;19.25;;;11.38;;
46084;SDS011;31823;47.032;8.310;2023-04-19T01:52:51;16.23;;;10.05;;
46084;SDS011;31823;47.032;8.310;2023-04-19T01:55:16;17.98;;;11.63;;
46084;SDS011;31823;47.032;8.310;2023-04-19T01:57:42;15.77;;;10.68;;
46084;SDS011;31823;47.032;8.310;2023-04-19T02:00:08;17.63;;;10.80;;
46084;SDS011;31823;47.032;8.310;2023-04-19T02:02:35;18.85;;;11.10;;
46084;SDS011;31823;47.032;8.310;2023-04-19T02:05:06;16.55;;;10.15;;
46084;SDS011;31823;47.032;8.310;2023-04-19T02:07:33;18.50;;;10.70;;
46084;SDS011;31823;47.032;8.310;2023-04-19T02:09:58;18.25;;;11.25;;
46084;SDS011;31823;47.032;8.310;2023-04-19T02:12:25;16.38;;;11.25;;
46084;SDS011;31823;47.032;8.310;2023-04-19T02:14:55;18.42;;;11.73;;
46084;SDS011;31823;47.032;8.310;2023-04-19T02:17:21;17.77;;;11.52;;
46084;SDS011;31823;47.032;8.310;2023-04-19T02:19:47;19.48;;;12.00;;
46084;SDS011;31823;47.032;8.310;2023-04-19T02:22:13;20.60;;;12.00;;
46084;SDS011;31823;47.032;8.310;2023-04-19T02:24:39;20.85;;;11.90;;
46084;SDS011;31823;47.032;8.310;2023-04-19T02:27:04;19.20;;;11.80;;
46084;SDS011;31823;47.032;8.310;2023-04-19T02:29:30;17.17;;;11.35;;
46084;SDS011;31823;47.032;8.310;2023-04-19T02:31:56;18.35;;;11.52;;
46084;SDS011;31823;47.032;8.310;2023-04-19T02:34:22;18.38;;;11.55;;
46084;SDS011;31823;47.032;8.310;2023-04-19T02:36:47;17.90;;;11.73;;
46084;SDS011;31823;47.032;8.310;2023-04-19T02:39:13;18.00;;;12.35;;
46084;SDS011;31823;47.032;8.310;2023-04-19T02:41:39;17.77;;;11.15;;
46084;SDS011;31823;47.032;8.310;2023-04-19T02:44:05;19.25;;;11.80;;
46084;SDS011;31823;47.032;8.310;2023-04-19T02:46:30;19.88;;;12.20;;
46084;SDS011;31823;47.032;8.310;2023-04-19T02:48:56;18.02;;;11.82;;
46084;SDS011;31823;47.032;8.310;2023-04-19T02:51:21;15.95;;;10.90;;
46084;SDS011;31823;47.032;8.310;2023-04-19T02:53:47;18.95;;;11.82;;
46084;SDS011;31823;47.032;8.310;2023-04-19T02:56:12;17.88;;;11.82;;
46084;SDS011;31823;47.032;8.310;2023-04-19T02:58:38;22.08;;;12.73;;
46084;SDS011;31823;47.032;8.310;2023-04-19T03:01:04;20.17;;;12.77;;
46084;SDS011;31823;47.032;8.310;2023-04-19T03:03:29;19.98;;;12.55;;
46084;SDS011;31823;47.032;8.310;2023-04-19T03:05:55;20.98;;;11.77;;
46084;SDS011;31823;47.032;8.310;2023-04-19T03:08:21;17.98;;;11.65;;
46084;SDS011;31823;47.032;8.310;2023-04-19T03:10:46;22.02;;;12.93;;
46084;SDS011;31823;47.032;8.310;2023-04-19T03:13:12;20.23;;;11.65;;
46084;SDS011;31823;47.032;8.310;2023-04-19T03:15:37;19.40;;;11.98;;
46084;SDS011;31823;47.032;8.310;2023-04-19T03:18:03;19.15;;;11.70;;
46084;SDS011;31823;47.032;8.310;2023-04-19T03:20:28;21.27;;;12.32;;
46084;SDS011;31823;47.032;8.310;2023-04-19T03:22:54;19.52;;;12.77;;
46084;SDS011;31823;47.032;8.310;2023-04-19T03:25:20;20.10;;;11.88;;
46084;SDS011;31823;47.032;8.310;2023-04-19T03:27:45;18.65;;;12.23;;
46084;SDS011;31823;47.032;8.310;2023-04-19T03:30:12;19.20;;;11.82;;
46084;SDS011;31823;47.032;8.310;2023-04-19T03:32:37;18.55;;;12.13;;
46084;SDS011;31823;47.032;8.310;2023-04-19T03:35:03;17.55;;;11.27;;
46084;SDS011;31823;47.032;8.310;2023-04-19T03:37:29;20.88;;;12.13;;
46084;SDS011;31823;47.032;8.310;2023-04-19T03:39:55;20.40;;;10.32;;
46084;SDS011;31823;47.032;8.310;2023-04-19T03:42:20;17.88;;;11.43;;
46084;SDS011;31823;47.032;8.310;2023-04-19T03:44:46;21.40;;;12.65;;
46084;SDS011;31823;47.032;8.310;2023-04-19T03:47:11;17.52;;;11.15;;
46084;SDS011;31823;47.032;8.310;2023-04-19T03:49:37;16.55;;;10.80;;
46084;SDS011;31823;47.032;8.310;2023-04-19T03:52:03;16.52;;;9.27;;
46084;SDS011;31823;47.032;8.310;2023-04-19T03:54:28;16.88;;;10.00;;
46084;SDS011;31823;47.032;8.310;2023-04-19T03:56:54;19.63;;;10.73;;
46084;SDS011;31823;47.032;8.310;2023-04-19T03:59:21;17.98;;;10.20;;
46084;SDS011;31823;47.032;8.310;2023-04-19T04:01:46;19.77;;;12.23;;
46084;SDS011;31823;47.032;8.310;2023-04-19T04:04:12;19.08;;;10.30;;
46084;SDS011;31823;47.032;8.310;2023-04-19T04:06:37;16.75;;;10.85;;
46084;SDS011;31823;47.032;8.310;2023-04-19T04:09:03;19.83;;;12.00;;
46084;SDS011;31823;47.032;8.310;2023-04-19T04:11:29;19.60;;;11.82;;
46084;SDS011;31823;47.032;8.310;2023-04-19T04:13:54;19.77;;;11.88;;
46084;SDS011;31823;47.032;8.310;2023-04-19T04:16:20;18.92;;;11.55;;
46084;SDS011;31823;47.032;8.310;2023-04-19T04:18:46;17.05;;;10.00;;
46084;SDS011;31823;47.032;8.310;2023-04-19T04:21:12;15.57;;;10.10;;
46084;SDS011;31823;47.032;8.310;2023-04-19T04:23:37;15.35;;;9.50;;
46084;SDS011;31823;47.032;8.310;2023-04-19T04:26:03;15.35;;;9.50;;
46084;SDS011;31823;47.032;8.310;2023-04-19T04:28:30;15.02;;;8.90;;
46084;SDS011;31823;47.032;8.310;2023-04-19T04:30:56;16.15;;;9.82;;
46084;SDS011;31823;47.032;8.310;2023-04-19T04:33:24;13.57;;;8.40;;
46084;SDS011;31823;47.032;8.310;2023-04-19T04:35:51;14.80;;;9.32;;
46084;SDS011;31823;47.032;8.310;2023-04-19T04:38:20;15.35;;;9.23;;
46084;SDS011;31823;47.032;8.310;2023-04-19T04:40:49;17.80;;;10.30;;
46084;SDS011;31823;47.032;8.310;2023-04-19T04:43:17;17.15;;;9.30;;
46084;SDS011;31823;47.032;8.310;2023-04-19T04:45:50;16.85;;;10.55;;
46084;SDS011;31823;47.032;8.310;2023-04-19T04:48:15;17.90;;;10.20;;
46084;SDS011;31823;47.032;8.310;2023-04-19T04:50:42;15.77;;;9.48;;
46084;SDS011;31823;47.032;8.310;2023-04-19T04:53:08;17.83;;;9.68;;
46084;SDS011;31823;47.032;8.310;2023-04-19T04:55:33;19.05;;;10.15;;
46084;SDS011;31823;47.032;8.310;2023-04-19T04:58:00;21.88;;;10.20;;
46084;SDS011;31823;47.032;8.310;2023-04-19T05:00:25;15.45;;;9.82;;
46084;SDS011;31823;47.032;8.310;2023-04-19T05:02:51;17.45;;;10.18;;
46084;SDS011;31823;47.032;8.310;2023-04-19T05:05:17;15.43;;;10.10;;
46084;SDS011;31823;47.032;8.310;2023-04-19T05:07:42;17.63;;;10.10;;
46084;SDS011;31823;47.032;8.310;2023-04-19T05:10:08;16.05;;;9.80;;
46084;SDS011;31823;47.032;8.310;2023-04-19T05:12:35;18.70;;;10.77;;
46084;SDS011;31823;47.032;8.310;2023-04-19T05:15:01;18.20;;;9.88;;
46084;SDS011;31823;47.032;8.310;2023-04-19T05:17:27;16.33;;;9.75;;
46084;SDS011;31823;47.032;8.310;2023-04-19T05:19:53;16.67;;;9.85;;
46084;SDS011;31823;47.032;8.310;2023-04-19T05:22:18;14.90;;;10.07;;
46084;SDS011;31823;47.032;8.310;2023-04-19T05:24:44;17.75;;;10.88;;
46084;SDS011;31823;47.032;8.310;2023-04-19T05:27:10;19.00;;;9.45;;
46084;SDS011;31823;47.032;8.310;2023-04-19T05:29:35;18.73;;;10.10;;
46084;SDS011;31823;47.032;8.310;2023-04-19T05:32:01;16.30;;;9.43;;
46084;SDS011;31823;47.032;8.310;2023-04-19T05:34:26;15.85;;;10.73;;
46084;SDS011;31823;47.032;8.310;2023-04-19T05:36:52;15.32;;;10.15;;
46084;SDS011;31823;47.032;8.310;2023-04-19T05:39:17;16.40;;;10.05;;
46084;SDS011;31823;47.032;8.310;2023-04-19T05:41:43;19.70;;;10.88;;
46084;SDS011;31823;47.032;8.310;2023-04-19T05:44:09;17.35;;;10.38;;
46084;SDS011;31823;47.032;8.310;2023-04-19T05:46:34;18.50;;;11.05;;
46084;SDS011;31823;47.032;8.310;2023-04-19T05:49:01;17.00;;;11.10;;
46084;SDS011;31823;47.032;8.310;2023-04-19T05:51:26;16.52;;;10.23;;
46084;SDS011;31823;47.032;8.310;2023-04-19T05:53:52;20.75;;;11.50;;
46084;SDS011;31823;47.032;8.310;2023-04-19T05:56:18;24.30;;;14.45;;
46084;SDS011;31823;47.032;8.310;2023-04-19T05:58:44;27.23;;;13.23;;
46084;SDS011;31823;47.032;8.310;2023-04-19T06:01:09;24.05;;;13.88;;
46084;SDS011;31823;47.032;8.310;2023-04-19T06:03:35;21.50;;;14.35;;
46084;SDS011;31823;47.032;8.310;2023-04-19T06:06:01;17.63;;;10.55;;
46084;SDS011;31823;47.032;8.310;2023-04-19T06:08:26;20.30;;;11.23;;
46084;SDS011;31823;47.032;8.310;2023-04-19T06:10:52;19.90;;;11.82;;
46084;SDS011;31823;47.032;8.310;2023-04-19T06:13:19;25.60;;;13.80;;
46084;SDS011;31823;47.032;8.310;2023-04-19T06:15:45;23.17;;;14.13;;
46084;SDS011;31823;47.032;8.310;2023-04-19T06:18:11;20.98;;;12.95;;
46084;SDS011;31823;47.032;8.310;2023-04-19T06:20:37;22.17;;;13.32;;
46084;SDS011;31823;47.032;8.310;2023-04-19T06:23:03;22.15;;;13.43;;
46084;SDS011;31823;47.032;8.310;2023-04-19T06:25:29;24.52;;;14.50;;
46084;SDS011;31823;47.032;8.310;2023-04-19T06:27:55;23.10;;;13.68;;
46084;SDS011;31823;47.032;8.310;2023-04-19T06:30:20;20.52;;;12.48;;
46084;SDS011;31823;47.032;8.310;2023-04-19T06:32:46;26.92;;;14.02;;
46084;SDS011;31823;47.032;8.310;2023-04-19T06:35:12;23.10;;;14.30;;
46084;SDS011;31823;47.032;8.310;2023-04-19T06:37:38;23.95;;;14.23;;
46084;SDS011;31823;47.032;8.310;2023-04-19T06:40:04;25.08;;;14.55;;
46084;SDS011;31823;47.032;8.310;2023-04-19T06:42:32;24.67;;;14.40;;
46084;SDS011;31823;47.032;8.310;2023-04-19T06:45:00;24.70;;;15.18;;
46084;SDS011;31823;47.032;8.310;2023-04-19T06:47:26;24.05;;;14.55;;
46084;SDS011;31823;47.032;8.310;2023-04-19T06:49:52;23.27;;;13.95;;
46084;SDS011;31823;47.032;8.310;2023-04-19T06:52:18;26.17;;;15.38;;
46084;SDS011;31823;47.032;8.310;2023-04-19T06:54:50;27.05;;;14.45;;
46084;SDS011;31823;47.032;8.310;2023-04-19T06:57:16;23.02;;;14.32;;
46084;SDS011;31823;47.032;8.310;2023-04-19T06:59:41;24.33;;;14.30;;
46084;SDS011;31823;47.032;8.310;2023-04-19T07:02:07;23.08;;;14.93;;
46084;SDS011;31823;47.032;8.310;2023-04-19T07:04:33;26.63;;;15.07;;
46084;SDS011;31823;47.032;8.310;2023-04-19T07:06:59;25.92;;;15.82;;
46084;SDS011;31823;47.032;8.310;2023-04-19T07:09:25;21.83;;;13.65;;
46084;SDS011;31823;47.032;8.310;2023-04-19T07:11:50;23.45;;;15.30;;
46084;SDS011;31823;47.032;8.310;2023-04-19T07:14:16;23.42;;;15.10;;
46084;SDS011;31823;47.032;8.310;2023-04-19T07:16:43;25.98;;;15.18;;
46084;SDS011;31823;47.032;8.310;2023-04-19T07:19:10;26.15;;;15.13;;
46084;SDS011;31823;47.032;8.310;2023-04-19T07:21:36;29.25;;;15.52;;
46084;SDS011;31823;47.032;8.310;2023-04-19T07:24:03;26.05;;;15.68;;
46084;SDS011;31823;47.032;8.310;2023-04-19T07:26:31;28.35;;;15.93;;
46084;SDS011;31823;47.032;8.310;2023-04-19T07:28:58;28.70;;;16.52;;
46084;SDS011;31823;47.032;8.310;2023-04-19T07:31:24;28.27;;;17.08;;
46084;SDS011;31823;47.032;8.310;2023-04-19T07:33:50;28.50;;;16.88;;
46084;SDS011;31823;47.032;8.310;2023-04-19T07:36:16;30.42;;;16.77;;
46084;SDS011;31823;47.032;8.310;2023-04-19T07:38:42;27.45;;;15.80;;
46084;SDS011;31823;47.032;8.310;2023-04-19T07:41:07;28.67;;;17.38;;
46084;SDS011;31823;47.032;8.310;2023-04-19T07:43:33;35.78;;;17.40;;
46084;SDS011;31823;47.032;8.310;2023-04-19T07:45:59;29.08;;;17.38;;
46084;SDS011;31823;47.032;8.310;2023-04-19T07:48:25;32.42;;;17.92;;
46084;SDS011;31823;47.032;8.310;2023-04-19T07:50:50;28.95;;;16.83;;
46084;SDS011;31823;47.032;8.310;2023-04-19T07:53:16;27.30;;;16.85;;
46084;SDS011;31823;47.032;8.310;2023-04-19T07:55:43;31.15;;;18.05;;
46084;SDS011;31823;47.032;8.310;2023-04-19T07:58:09;28.35;;;16.08;;
46084;SDS011;31823;47.032;8.310;2023-04-19T08:00:35;31.42;;;17.63;;
46084;SDS011;31823;47.032;8.310;2023-04-19T08:03:02;27.25;;;17.45;;
46084;SDS011;31823;47.032;8.310;2023-04-19T08:05:27;28.20;;;16.83;;
46084;SDS011;31823;47.032;8.310;2023-04-19T08:07:53;29.23;;;17.60;;
46084;SDS011;31823;47.032;8.310;2023-04-19T08:10:19;31.60;;;17.45;;
46084;SDS011;31823;47.032;8.310;2023-04-19T08:12:45;29.67;;;17.70;;
46084;SDS011;31823;47.032;8.310;2023-04-19T08:15:11;27.13;;;16.30;;
46084;SDS011;31823;47.032;8.310;2023-04-19T08:17:36;28.00;;;16.73;;
46084;SDS011;31823;47.032;8.310;2023-04-19T08:20:04;29.08;;;17.45;;
46084;SDS011;31823;47.032;8.310;2023-04-19T08:22:30;27.83;;;16.00;;
46084;SDS011;31823;47.032;8.310;2023-04-19T08:24:56;30.50;;;17.33;;
46084;SDS011;31823;47.032;8.310;2023-04-19T08:27:21;25.48;;;15.52;;
46084;SDS011;31823;47.032;8.310;2023-04-19T08:29:47;26.58;;;16.05;;
46084;SDS011;31823;47.032;8.310;2023-04-19T08:32:13;25.67;;;15.68;;
46084;SDS011;31823;47.032;8.310;2023-04-19T08:34:39;26.88;;;15.73;;
46084;SDS011;31823;47.032;8.310;2023-04-19T08:37:05;36.30;;;20.30;;
46084;SDS011;31823;47.032;8.310;2023-04-19T08:39:31;24.40;;;15.88;;
46084;SDS011;31823;47.032;8.310;2023-04-19T08:42:04;25.70;;;15.40;;
46084;SDS011;31823;47.032;8.310;2023-04-19T08:44:31;27.67;;;16.00;;
46084;SDS011;31823;47.032;8.310;2023-04-19T08:46:58;27.58;;;15.95;;
46084;SDS011;31823;47.032;8.310;2023-04-19T08:49:26;25.38;;;16.00;;
46084;SDS011;31823;47.032;8.310;2023-04-19T08:51:52;25.83;;;15.30;;
46084;SDS011;31823;47.032;8.310;2023-04-19T08:54:18;27.55;;;16.58;;
46084;SDS011;31823;47.032;8.310;2023-04-19T08:56:45;25.73;;;16.05;;
46084;SDS011;31823;47.032;8.310;2023-04-19T08:59:11;26.13;;;15.05;;
46084;SDS011;31823;47.032;8.310;2023-04-19T09:01:38;27.10;;;16.13;;
46084;SDS011;31823;47.032;8.310;2023-04-19T09:04:04;26.02;;;16.23;;
46084;SDS011;31823;47.032;8.310;2023-04-19T09:06:39;23.27;;;15.70;;
46084;SDS011;31823;47.032;8.310;2023-04-19T09:09:18;24.50;;;15.40;;
46084;SDS011;31823;47.032;8.310;2023-04-19T09:11:45;24.60;;;16.25;;
46084;SDS011;31823;47.032;8.310;2023-04-19T09:14:12;23.63;;;14.48;;
46084;SDS011;31823;47.032;8.310;2023-04-19T09:16:38;24.50;;;16.10;;
46084;SDS011;31823;47.032;8.310;2023-04-19T09:19:05;24.25;;;15.43;;
46084;SDS011;31823;47.032;8.310;2023-04-19T09:21:33;29.73;;;16.27;;
46084;SDS011;31823;47.032;8.310;2023-04-19T09:23:59;28.08;;;16.30;;
46084;SDS011;31823;47.032;8.310;2023-04-19T09:26:26;26.13;;;15.63;;
46084;SDS011;31823;47.032;8.310;2023-04-19T09:31:30;25.48;;;15.43;;
46084;SDS011;31823;47.032;8.310;2023-04-19T09:33:56;24.08;;;15.38;;
46084;SDS011;31823;47.032;8.310;2023-04-19T09:36:29;25.27;;;15.90;;
46084;SDS011;31823;47.032;8.310;2023-04-19T09:38:56;27.38;;;15.48;;
46084;SDS011;31823;47.032;8.310;2023-04-19T09:41:23;26.48;;;16.55;;
46084;SDS011;31823;47.032;8.310;2023-04-19T09:43:49;27.25;;;15.65;;
46084;SDS011;31823;47.032;8.310;2023-04-19T09:46:32;25.52;;;16.20;;
46084;SDS011;31823;47.032;8.310;2023-04-19T09:51:44;24.13;;;14.63;;
46084;SDS011;31823;47.032;8.310;2023-04-19T09:54:18;23.10;;;14.35;;
46084;SDS011;31823;47.032;8.310;2023-04-19T09:56:45;23.40;;;15.30;;
46084;SDS011;31823;47.032;8.310;2023-04-19T09:59:11;22.75;;;14.45;;
46084;SDS011;31823;47.032;8.310;2023-04-19T10:01:44;21.67;;;14.90;;
46084;SDS011;31823;47.032;8.310;2023-04-19T10:04:12;23.23;;;14.85;;
46084;SDS011;31823;47.032;8.310;2023-04-19T10:06:46;22.13;;;14.77;;
46084;SDS011;31823;47.032;8.310;2023-04-19T10:09:13;22.20;;;15.05;;
46084;SDS011;31823;47.032;8.310;2023-04-19T10:11:39;26.27;;;15.68;;
46084;SDS011;31823;47.032;8.310;2023-04-19T10:14:08;24.50;;;15.13;;
46084;SDS011;31823;47.032;8.310;2023-04-19T10:16:35;25.63;;;14.98;;
46084;SDS011;31823;47.032;8.310;2023-04-19T10:19:03;25.45;;;14.63;;
46084;SDS011;31823;47.032;8.310;2023-04-19T10:21:33;23.80;;;15.52;;
46084;SDS011;31823;47.032;8.310;2023-04-19T10:24:00;24.27;;;14.48;;
46084;SDS011;31823;47.032;8.310;2023-04-19T10:26:26;23.67;;;14.25;;
46084;SDS011;31823;47.032;8.310;2023-04-19T10:28:55;22.77;;;14.85;;
46084;SDS011;31823;47.032;8.310;2023-04-19T10:31:21;22.98;;;14.55;;
46084;SDS011;31823;47.032;8.310;2023-04-19T10:33:49;26.45;;;14.48;;
46084;SDS011;31823;47.032;8.310;2023-04-19T10:36:19;23.15;;;14.43;;
46084;SDS011;31823;47.032;8.310;2023-04-19T10:41:16;23.45;;;14.05;;
46084;SDS011;31823;47.032;8.310;2023-04-19T10:51:21;25.48;;;16.35;;
46084;SDS011;31823;47.032;8.310;2023-04-19T10:54:08;24.80;;;15.50;;
46084;SDS011;31823;47.032;8.310;2023-04-19T10:59:23;22.42;;;14.00;;
46084;SDS011;31823;47.032;8.310;2023-04-19T11:01:50;25.67;;;13.98;;
46084;SDS011;31823;47.032;8.310;2023-04-19T11:04:21;21.20;;;14.80;;
46084;SDS011;31823;47.032;8.310;2023-04-19T11:09:31;23.60;;;13.98;;
46084;SDS011;31823;47.032;8.310;2023-04-19T11:12:00;21.10;;;13.63;;
46084;SDS011;31823;47.032;8.310;2023-04-19T11:14:34;21.15;;;13.55;;
46084;SDS011;31823;47.032;8.310;2023-04-19T11:17:23;21.33;;;14.05;;
46084;SDS011;31823;47.032;8.310;2023-04-19T11:20:02;21.52;;;13.57;;
46084;SDS011;31823;47.032;8.310;2023-04-19T11:27:32;24.08;;;14.85;;
46084;SDS011;31823;47.032;8.310;2023-04-19T11:30:02;68.25;;;17.08;;
46084;SDS011;31823;47.032;8.310;2023-04-19T11:32:29;31.02;;;14.50;;
46084;SDS011;31823;47.032;8.310;2023-04-19T11:34:54;29.45;;;13.55;;
46084;SDS011;31823;47.032;8.310;2023-04-19T11:37:21;19.10;;;12.23;;
46084;SDS011;31823;47.032;8.310;2023-04-19T11:39:47;19.15;;;12.15;;
46084;SDS011;31823;47.032;8.310;2023-04-19T11:42:16;26.80;;;14.10;;
46084;SDS011;31823;47.032;8.310;2023-04-19T11:44:46;27.38;;;13.52;;
46084;SDS011;31823;47.032;8.310;2023-04-19T11:47:13;24.55;;;14.32;;
46084;SDS011;31823;47.032;8.310;2023-04-19T11:49:39;21.60;;;13.40;;
46084;SDS011;31823;47.032;8.310;2023-04-19T11:52:04;20.02;;;12.55;;
46084;SDS011;31823;47.032;8.310;2023-04-19T11:54:30;22.23;;;12.88;;
46084;SDS011;31823;47.032;8.310;2023-04-19T11:56:59;18.40;;;12.10;;
46084;SDS011;31823;47.032;8.310;2023-04-19T11:59:30;19.77;;;12.73;;
46084;SDS011;31823;47.032;8.310;2023-04-19T12:02:03;34.45;;;13.15;;
46084;SDS011;31823;47.032;8.310;2023-04-19T12:04:32;16.88;;;11.98;;
46084;SDS011;31823;47.032;8.310;2023-04-19T12:06:59;18.83;;;11.23;;
46084;SDS011;31823;47.032;8.310;2023-04-19T12:09:26;19.45;;;11.73;;
46084;SDS011;31823;47.032;8.310;2023-04-19T12:11:51;21.73;;;13.93;;
46084;SDS011;31823;47.032;8.310;2023-04-19T12:14:18;16.55;;;11.20;;
46084;SDS011;31823;47.032;8.310;2023-04-19T12:17:05;18.10;;;10.90;;
46084;SDS011;31823;47.032;8.310;2023-04-19T12:19:45;19.38;;;12.60;;
46084;SDS011;31823;47.032;8.310;2023-04-19T12:22:12;15.10;;;11.02;;
46084;SDS011;31823;47.032;8.310;2023-04-19T12:24:39;17.73;;;12.18;;
46084;SDS011;31823;47.032;8.310;2023-04-19T12:27:06;17.48;;;12.05;;
46084;SDS011;31823;47.032;8.310;2023-04-19T12:29:32;19.45;;;12.32;;
46084;SDS011;31823;47.032;8.310;2023-04-19T12:31:58;18.70;;;12.05;;
46084;SDS011;31823;47.032;8.310;2023-04-19T12:34:25;18.38;;;11.98;;
46084;SDS011;31823;47.032;8.310;2023-04-19T12:36:50;20.48;;;12.60;;
46084;SDS011;31823;47.032;8.310;2023-04-19T12:39:16;19.60;;;12.10;;
46084;SDS011;31823;47.032;8.310;2023-04-19T12:41:41;20.80;;;12.88;;
46084;SDS011;31823;47.032;8.310;2023-04-19T12:44:07;19.00;;;12.48;;
46084;SDS011;31823;47.032;8.310;2023-04-19T12:46:33;20.77;;;12.73;;
46084;SDS011;31823;47.032;8.310;2023-04-19T12:48:58;21.50;;;14.73;;
46084;SDS011;31823;47.032;8.310;2023-04-19T12:51:24;19.58;;;13.23;;
46084;SDS011;31823;47.032;8.310;2023-04-19T12:53:49;19.52;;;12.85;;
46084;SDS011;31823;47.032;8.310;2023-04-19T12:56:16;20.92;;;12.25;;
46084;SDS011;31823;47.032;8.310;2023-04-19T12:58:42;17.33;;;11.40;;
46084;SDS011;31823;47.032;8.310;2023-04-19T13:01:08;17.70;;;12.27;;
46084;SDS011;31823;47.032;8.310;2023-04-19T13:03:34;20.58;;;12.55;;
46084;SDS011;31823;47.032;8.310;2023-04-19T13:06:03;18.17;;;11.93;;
46084;SDS011;31823;47.032;8.310;2023-04-19T13:08:30;20.40;;;12.48;;
46084;SDS011;31823;47.032;8.310;2023-04-19T13:10:56;18.48;;;11.60;;
46084;SDS011;31823;47.032;8.310;2023-04-19T13:13:23;17.63;;;11.88;;
46084;SDS011;31823;47.032;8.310;2023-04-19T13:15:50;18.60;;;13.15;;
46084;SDS011;31823;47.032;8.310;2023-04-19T13:18:15;17.58;;;12.13;;
46084;SDS011;31823;47.032;8.310;2023-04-19T13:20:42;18.45;;;11.55;;
46084;SDS011;31823;47.032;8.310;2023-04-19T13:23:08;18.05;;;12.07;;
46084;SDS011;31823;47.032;8.310;2023-04-19T13:25:34;21.65;;;12.35;;
46084;SDS011;31823;47.032;8.310;2023-04-19T13:27:59;16.42;;;11.85;;
46084;SDS011;31823;47.032;8.310;2023-04-19T13:30:25;18.60;;;12.32;;
46084;SDS011;31823;47.032;8.310;2023-04-19T13:32:51;17.52;;;11.77;;
46084;SDS011;31823;47.032;8.310;2023-04-19T13:35:16;17.67;;;11.85;;
46084;SDS011;31823;47.032;8.310;2023-04-19T13:37:42;19.77;;;11.80;;
46084;SDS011;31823;47.032;8.310;2023-04-19T13:40:08;16.70;;;11.90;;
46084;SDS011;31823;47.032;8.310;2023-04-19T13:42:35;17.00;;;11.43;;
46084;SDS011;31823;47.032;8.310;2023-04-19T13:45:00;20.05;;;11.90;;
46084;SDS011;31823;47.032;8.310;2023-04-19T13:47:26;15.10;;;11.20;;
46084;SDS011;31823;47.032;8.310;2023-04-19T13:49:51;16.38;;;10.40;;
46084;SDS011;31823;47.032;8.310;2023-04-19T13:52:17;16.80;;;10.65;;
46084;SDS011;31823;47.032;8.310;2023-04-19T13:54:43;16.63;;;10.70;;
46084;SDS011;31823;47.032;8.310;2023-04-19T13:57:09;16.25;;;11.43;;
46084;SDS011;31823;47.032;8.310;2023-04-19T13:59:35;17.73;;;11.40;;
46084;SDS011;31823;47.032;8.310;2023-04-19T14:02:02;16.63;;;11.10;;
46084;SDS011;31823;47.032;8.310;2023-04-19T14:04:28;18.27;;;10.90;;
46084;SDS011;31823;47.032;8.310;2023-04-19T14:06:53;20.02;;;11.98;;
46084;SDS011;31823;47.032;8.310;2023-04-19T14:09:19;14.55;;;10.65;;
46084;SDS011;31823;47.032;8.310;2023-04-19T14:11:45;18.90;;;10.50;;
46084;SDS011;31823;47.032;8.310;2023-04-19T14:14:12;16.52;;;10.10;;
46084;SDS011;31823;47.032;8.310;2023-04-19T14:16:38;15.77;;;9.90;;
46084;SDS011;31823;47.032;8.310;2023-04-19T14:19:03;19.05;;;11.18;;
46084;SDS011;31823;47.032;8.310;2023-04-19T14:21:29;15.02;;;10.10;;
46084;SDS011;31823;47.032;8.310;2023-04-19T14:23:55;18.25;;;10.77;;
46084;SDS011;31823;47.032;8.310;2023-04-19T14:26:21;14.52;;;10.25;;
46084;SDS011;31823;47.032;8.310;2023-04-19T14:28:46;13.57;;;9.70;;
46084;SDS011;31823;47.032;8.310;2023-04-19T14:31:12;13.40;;;9.43;;
46084;SDS011;31823;47.032;8.310;2023-04-19T14:33:38;16.83;;;9.82;;
46084;SDS011;31823;47.032;8.310;2023-04-19T14:36:03;12.57;;;9.35;;
46084;SDS011;31823;47.032;8.310;2023-04-19T14:38:29;13.70;;;9.25;;
46084;SDS011;31823;47.032;8.310;2023-04-19T14:40:55;14.23;;;9.88;;
46084;SDS011;31823;47.032;8.310;2023-04-19T14:43:20;13.43;;;9.65;;
46084;SDS011;31823;47.032;8.310;2023-04-19T14:45:47;14.20;;;9.98;;